createdAt,value
2023-03-06T00:00:49.438Z,5.93
2023-03-06T00:03:17.061Z,6.97
2023-03-06T00:05:44.711Z,4.65
2023-03-06T00:08:12.647Z,4.57
2023-03-06T00:10:41.138Z,3.63
2023-03-06T00:13:13.827Z,4.18
2023-03-06T00:15:41.763Z,6.78
2023-03-06T00:18:09.535Z,5.70
2023-03-06T00:20:37.418Z,3.58
2023-03-06T00:23:05.019Z,4.65
2023-03-06T00:25:34.833Z,4.90
2023-03-06T00:28:02.482Z,4.13
2023-03-06T00:30:31.984Z,4.43
2023-03-06T00:32:59.667Z,5.00
2023-03-06T00:35:27.425Z,8.52
2023-03-06T00:37:55.010Z,4.15
2023-03-06T00:40:23.056Z,4.53
2023-03-06T00:42:50.682Z,5.60
2023-03-06T00:45:18.772Z,3.42
2023-03-06T00:47:47.630Z,8.18
2023-03-06T00:50:15.193Z,4.95
2023-03-06T00:52:42.909Z,5.22
2023-03-06T00:55:11.189Z,6.53
2023-03-06T00:57:38.906Z,4.07
2023-03-06T01:00:07.952Z,8.85
2023-03-06T01:02:35.743Z,10.82
2023-03-06T01:05:04.950Z,5.72
2023-03-06T01:07:34.000Z,4.75
2023-03-06T01:10:01.528Z,7.10
2023-03-06T01:12:29.021Z,9.80
2023-03-06T01:14:56.627Z,2.53
2023-03-06T01:17:24.130Z,9.50
2023-03-06T01:19:51.784Z,5.28
2023-03-06T01:22:20.578Z,5.18
2023-03-06T01:24:48.336Z,5.40
2023-03-06T01:27:15.843Z,7.18
2023-03-06T01:29:43.367Z,13.90
2023-03-06T01:32:10.902Z,8.35
2023-03-06T01:34:38.366Z,6.45
2023-03-06T01:37:06.088Z,7.47
2023-03-06T01:39:34.908Z,9.10
2023-03-06T01:42:02.395Z,6.68
2023-03-06T01:44:29.880Z,7.05
2023-03-06T01:46:57.366Z,5.10
2023-03-06T01:49:26.853Z,6.75
2023-03-06T01:51:57.016Z,4.53
2023-03-06T01:54:27.474Z,3.53
2023-03-06T01:56:58.277Z,6.50
2023-03-06T01:59:26.868Z,5.95
2023-03-06T02:01:54.678Z,6.65
2023-03-06T02:04:22.508Z,9.50
2023-03-06T02:06:50.154Z,5.03
2023-03-06T02:09:17.729Z,5.80
2023-03-06T02:11:46.285Z,6.85
2023-03-06T02:14:16.982Z,5.45
2023-03-06T02:16:44.868Z,5.20
2023-03-06T02:19:24.376Z,6.30
2023-03-06T02:21:51.965Z,5.75
2023-03-06T02:24:30.641Z,11.00
2023-03-06T02:27:00.819Z,4.55
2023-03-06T02:29:29.901Z,5.80
2023-03-06T02:31:58.852Z,6.65
2023-03-06T02:34:57.313Z,7.45
2023-03-06T02:37:27.828Z,9.38
2023-03-06T02:40:00.959Z,7.32
2023-03-06T02:42:29.856Z,4.15
2023-03-06T02:44:59.402Z,6.03
2023-03-06T02:47:27.125Z,5.00
2023-03-06T02:49:54.601Z,8.55
2023-03-06T02:52:22.116Z,3.45
2023-03-06T02:54:49.575Z,4.57
2023-03-06T02:57:17.122Z,9.23
2023-03-06T02:59:46.147Z,7.78
2023-03-06T03:02:13.668Z,6.55
2023-03-06T03:04:41.419Z,6.72
2023-03-06T03:07:09.168Z,7.97
2023-03-06T03:09:37.248Z,4.57
2023-03-06T03:12:06.721Z,6.30
2023-03-06T03:14:34.423Z,6.50
2023-03-06T03:17:03.757Z,11.77
2023-03-06T03:19:31.279Z,8.40
2023-03-06T03:21:59.021Z,7.45
2023-03-06T03:24:26.625Z,5.32
2023-03-06T03:26:54.135Z,8.90
2023-03-06T03:29:21.652Z,9.38
2023-03-06T03:31:49.257Z,9.75
2023-03-06T03:34:18.904Z,8.82
2023-03-06T03:36:46.883Z,8.13
2023-03-06T03:39:14.773Z,10.80
2023-03-06T03:41:42.309Z,8.90
2023-03-06T03:44:10.288Z,8.65
2023-03-06T03:46:37.889Z,9.48
2023-03-06T03:49:05.523Z,8.05
2023-03-06T03:51:34.859Z,3.28
2023-03-06T03:54:02.601Z,11.43
2023-03-06T03:56:30.099Z,8.85
2023-03-06T03:58:57.637Z,11.60
2023-03-06T04:01:25.272Z,10.57
2023-03-06T04:03:52.949Z,11.25
2023-03-06T04:06:20.778Z,11.10
2023-03-06T04:08:49.579Z,13.38
2023-03-06T04:11:17.097Z,11.05
2023-03-06T04:13:44.730Z,14.73
2023-03-06T04:16:12.483Z,13.35
2023-03-06T04:18:40.021Z,13.30
2023-03-06T04:21:07.725Z,12.65
2023-03-06T04:23:35.401Z,10.90
2023-03-06T04:26:04.647Z,12.25
2023-03-06T04:28:32.146Z,13.43
2023-03-06T04:30:59.719Z,10.80
2023-03-06T04:33:27.241Z,12.50
2023-03-06T04:35:54.760Z,13.65
2023-03-06T04:38:22.299Z,16.20
2023-03-06T04:40:50.129Z,15.45
2023-03-06T04:43:19.082Z,17.08
2023-03-06T04:45:46.712Z,16.70
2023-03-06T04:48:15.615Z,17.95
2023-03-06T04:50:44.452Z,15.82
2023-03-06T04:53:12.004Z,17.40
2023-03-06T04:55:39.536Z,17.05
2023-03-06T04:58:07.038Z,18.15
2023-03-06T05:00:35.855Z,14.85
2023-03-06T05:03:03.481Z,18.60
2023-03-06T05:05:30.998Z,26.67
2023-03-06T05:07:58.465Z,25.77
2023-03-06T05:10:25.953Z,27.88
2023-03-06T05:12:53.530Z,28.63
2023-03-06T05:15:21.143Z,22.23
2023-03-06T05:17:50.129Z,19.27
2023-03-06T05:20:18.384Z,22.48
2023-03-06T05:22:46.046Z,20.77
2023-03-06T05:25:13.544Z,19.02
2023-03-06T05:27:41.554Z,21.48
2023-03-06T05:30:12.633Z,20.35
2023-03-06T05:32:40.189Z,21.45
2023-03-06T05:35:09.937Z,19.50
2023-03-06T05:37:37.401Z,18.02
2023-03-06T05:40:09.477Z,19.30
2023-03-06T05:42:36.997Z,22.67
2023-03-06T05:45:05.347Z,27.10
2023-03-06T05:47:33.428Z,26.85
2023-03-06T05:50:00.958Z,25.63
2023-03-06T05:52:29.768Z,25.00
2023-03-06T05:54:57.338Z,24.13
2023-03-06T05:57:25.469Z,20.05
2023-03-06T05:59:52.987Z,19.17
2023-03-06T06:02:20.680Z,20.30
2023-03-06T06:04:48.316Z,18.48
2023-03-06T06:07:17.313Z,20.98
2023-03-06T06:09:46.539Z,19.65
2023-03-06T06:12:14.476Z,21.95
2023-03-06T06:14:41.949Z,19.70
2023-03-06T06:17:09.620Z,19.23
2023-03-06T06:19:37.129Z,22.23
2023-03-06T06:22:04.755Z,17.33
2023-03-06T06:24:32.981Z,18.90
2023-03-06T06:27:03.861Z,23.70
2023-03-06T06:29:32.051Z,22.65
2023-03-06T06:31:59.822Z,23.38
2023-03-06T06:34:28.118Z,24.15
2023-03-06T06:36:55.847Z,25.25
2023-03-06T06:39:24.188Z,21.23
2023-03-06T06:42:09.538Z,24.55
2023-03-06T06:44:41.774Z,19.83
2023-03-06T06:47:25.800Z,19.25
2023-03-06T06:49:54.931Z,18.77
2023-03-06T06:52:22.777Z,20.85
2023-03-06T06:54:50.311Z,22.17
2023-03-06T06:57:18.103Z,22.77
2023-03-06T06:59:46.931Z,20.70
2023-03-06T07:02:15.744Z,19.38
2023-03-06T07:05:00.403Z,18.02
2023-03-06T07:07:30.753Z,19.33
2023-03-06T07:09:59.416Z,19.85
2023-03-06T07:12:27.064Z,21.65
2023-03-06T07:14:55.982Z,19.13
2023-03-06T07:17:23.621Z,21.27
2023-03-06T07:19:51.376Z,21.95
2023-03-06T07:22:19.041Z,20.52
2023-03-06T07:24:46.679Z,26.05
2023-03-06T07:27:14.172Z,22.38
2023-03-06T07:29:43.530Z,22.95
2023-03-06T07:32:12.738Z,22.00
2023-03-06T07:34:40.265Z,18.88
2023-03-06T07:37:07.773Z,24.67
2023-03-06T07:39:35.692Z,23.92
2023-03-06T07:42:03.281Z,25.55
2023-03-06T07:44:30.885Z,21.98
2023-03-06T07:46:58.467Z,25.75
2023-03-06T07:49:27.376Z,23.77
2023-03-06T07:51:54.869Z,29.27
2023-03-06T07:54:22.378Z,31.27
2023-03-06T07:56:51.218Z,30.58
2023-03-06T07:59:18.760Z,27.83
2023-03-06T08:01:46.572Z,28.15
2023-03-06T08:04:14.222Z,24.55
2023-03-06T08:06:43.016Z,23.45
2023-03-06T08:09:10.791Z,31.90
2023-03-06T08:11:38.279Z,22.98
2023-03-06T08:14:05.891Z,30.05
2023-03-06T08:16:33.471Z,22.55
2023-03-06T08:19:00.974Z,24.10
2023-03-06T08:21:29.613Z,20.73
2023-03-06T08:23:58.616Z,31.52
2023-03-06T08:26:27.689Z,72.57
2023-03-06T08:28:56.762Z,24.33
2023-03-06T08:31:29.742Z,21.17
2023-03-06T08:36:25.277Z,18.48
2023-03-06T08:38:53.008Z,16.70
2023-03-06T08:41:21.914Z,16.52
2023-03-06T08:43:49.620Z,18.48
2023-03-06T08:46:18.759Z,17.50
2023-03-06T08:48:47.826Z,20.17
2023-03-06T08:51:15.846Z,17.65
2023-03-06T08:53:44.292Z,12.50
2023-03-06T08:56:16.718Z,17.73
2023-03-06T08:58:45.746Z,13.50
2023-03-06T09:01:17.228Z,23.10
2023-03-06T09:03:45.126Z,15.30
2023-03-06T09:06:13.262Z,13.68
2023-03-06T09:08:43.037Z,15.68
2023-03-06T09:11:11.878Z,15.38
2023-03-06T09:13:39.407Z,17.58
2023-03-06T09:16:08.893Z,14.40
2023-03-06T09:18:36.795Z,16.38
2023-03-06T09:21:05.425Z,13.15
2023-03-06T09:23:33.219Z,18.15
2023-03-06T09:26:03.098Z,14.57
2023-03-06T09:28:30.654Z,16.67
2023-03-06T09:30:58.221Z,12.90
2023-03-06T09:33:28.690Z,10.57
2023-03-06T09:35:58.540Z,16.38
2023-03-06T09:38:27.799Z,13.27
2023-03-06T09:41:04.648Z,17.52
2023-03-06T09:43:35.352Z,16.92
2023-03-06T09:46:08.350Z,13.45
2023-03-06T09:51:11.756Z,20.45
2023-03-06T09:53:49.604Z,16.85
2023-03-06T09:56:18.910Z,16.05
2023-03-06T09:58:50.023Z,17.15
2023-03-06T10:01:21.000Z,18.25
2023-03-06T10:03:53.320Z,18.45
2023-03-06T10:06:25.021Z,20.67
2023-03-06T10:08:55.109Z,17.52
2023-03-06T10:11:26.060Z,16.33
2023-03-06T10:13:55.439Z,17.90
2023-03-06T10:16:27.489Z,20.27
2023-03-06T10:18:58.977Z,21.90
2023-03-06T10:21:34.518Z,21.70
2023-03-06T10:24:08.471Z,19.60
2023-03-06T10:26:40.265Z,15.85
2023-03-06T10:29:39.206Z,16.73
2023-03-06T10:32:12.915Z,15.98
2023-03-06T10:34:42.161Z,14.02
2023-03-06T10:37:19.378Z,17.83
2023-03-06T10:39:47.305Z,16.65
2023-03-06T10:42:14.851Z,12.60
2023-03-06T10:44:42.395Z,13.90
2023-03-06T10:47:37.520Z,14.40
2023-03-06T10:50:17.514Z,13.25
2023-03-06T10:52:45.013Z,14.60
2023-03-06T10:55:27.630Z,11.98
2023-03-06T10:57:55.145Z,12.65
2023-03-06T11:00:35.972Z,13.65
2023-03-06T11:03:19.380Z,13.98
2023-03-06T11:05:57.834Z,12.35
2023-03-06T11:08:25.323Z,11.32
2023-03-06T11:10:57.844Z,6.22
2023-03-06T11:13:27.297Z,6.25
2023-03-06T11:16:00.676Z,5.97
2023-03-06T11:18:34.928Z,6.10
2023-03-06T11:21:07.470Z,5.90
2023-03-06T11:23:42.338Z,4.90
2023-03-06T11:26:25.904Z,4.63
2023-03-06T11:29:02.035Z,4.70
2023-03-06T11:31:32.517Z,4.75
2023-03-06T11:34:05.771Z,5.43
2023-03-06T11:36:39.718Z,16.63
2023-03-06T11:39:19.990Z,15.25
2023-03-06T11:41:53.357Z,33.55
2023-03-06T11:44:26.842Z,58.08
2023-03-06T11:47:07.300Z,28.77
2023-03-06T11:49:40.970Z,19.38
2023-03-06T11:52:14.409Z,7.78
2023-03-06T11:54:41.908Z,10.23
2023-03-06T11:57:14.137Z,8.48
2023-03-06T12:00:04.797Z,34.65
2023-03-06T12:02:40.348Z,9.65
2023-03-06T12:05:24.485Z,4.65
2023-03-06T12:07:58.809Z,3.75
2023-03-06T12:10:31.168Z,3.45
2023-03-06T12:13:15.373Z,3.58
2023-03-06T12:15:53.209Z,3.67
2023-03-06T12:18:34.141Z,4.40
2023-03-06T12:21:07.744Z,4.05
2023-03-06T12:23:55.045Z,12.68
2023-03-06T12:26:38.421Z,8.23
2023-03-06T12:29:16.617Z,4.82
2023-03-06T12:31:57.117Z,4.38
2023-03-06T12:34:33.134Z,6.07
2023-03-06T12:37:10.457Z,6.32
2023-03-06T12:39:51.371Z,6.03
2023-03-06T12:42:35.040Z,6.88
2023-03-06T12:45:23.221Z,6.22
2023-03-06T12:47:56.000Z,8.48
2023-03-06T12:50:25.912Z,6.18
2023-03-06T12:52:55.112Z,9.10
2023-03-06T12:55:26.038Z,6.95
2023-03-06T12:57:54.078Z,6.03
2023-03-06T13:01:05.055Z,7.20
2023-03-06T13:03:39.340Z,9.48
2023-03-06T13:06:36.483Z,11.00
2023-03-06T13:09:18.886Z,8.38
2023-03-06T13:12:00.603Z,5.63
2023-03-06T13:14:32.134Z,7.88
2023-03-06T13:17:25.249Z,7.30
2023-03-06T13:20:14.351Z,20.67
2023-03-06T13:22:42.937Z,8.90
2023-03-06T13:25:36.617Z,5.88
2023-03-06T13:28:07.730Z,9.80
2023-03-06T13:30:46.295Z,6.47
2023-03-06T13:33:54.398Z,4.90
2023-03-06T13:36:26.128Z,5.85
2023-03-06T13:38:56.449Z,9.73
2023-03-06T13:41:37.451Z,6.90
2023-03-06T13:44:49.601Z,6.40
2023-03-06T13:48:05.744Z,11.68
2023-03-06T13:50:47.095Z,9.00
2023-03-06T13:53:27.332Z,8.93
2023-03-06T13:56:04.187Z,8.85
2023-03-06T13:58:42.661Z,6.93
2023-03-06T14:01:24.540Z,5.80
2023-03-06T14:04:05.348Z,5.75
2023-03-06T14:07:01.265Z,4.90
2023-03-06T14:09:30.390Z,8.23
2023-03-06T14:12:00.687Z,7.82
2023-03-06T14:14:39.823Z,4.90
2023-03-06T14:17:20.158Z,4.85
2023-03-06T14:19:47.965Z,6.05
2023-03-06T14:22:18.032Z,4.68
2023-03-06T14:24:53.930Z,4.65
2023-03-06T14:27:21.766Z,4.30
2023-03-06T14:29:49.857Z,9.07
2023-03-06T14:32:22.645Z,10.93
2023-03-06T14:34:50.152Z,5.30
2023-03-06T14:37:20.969Z,6.38
2023-03-06T14:39:48.532Z,8.18
2023-03-06T14:42:19.418Z,5.75
2023-03-06T14:44:47.145Z,5.32
2023-03-06T14:47:23.779Z,4.60
2023-03-06T14:50:24.798Z,5.75
2023-03-06T14:52:55.462Z,5.72
2023-03-06T14:55:24.947Z,13.77
2023-03-06T14:57:55.012Z,13.50
2023-03-06T15:00:24.079Z,16.73
2023-03-06T15:02:55.029Z,7.40
2023-03-06T15:05:24.606Z,6.82
2023-03-06T15:07:52.620Z,12.80
2023-03-06T15:10:22.971Z,13.93
2023-03-06T15:12:50.474Z,12.98
2023-03-06T15:15:31.214Z,10.77
2023-03-06T15:18:00.198Z,11.18
2023-03-06T15:20:45.519Z,10.77
2023-03-06T15:23:22.046Z,8.50
2023-03-06T15:26:29.438Z,7.60
2023-03-06T15:29:09.078Z,9.32
2023-03-06T15:31:38.142Z,10.30
2023-03-06T15:34:18.628Z,6.90
2023-03-06T15:36:48.118Z,7.32
2023-03-06T15:39:29.883Z,7.55
2023-03-06T15:41:58.877Z,10.00
2023-03-06T15:44:26.839Z,6.63
2023-03-06T15:47:07.724Z,14.55
2023-03-06T15:49:37.658Z,8.88
2023-03-06T15:52:05.305Z,6.20
2023-03-06T15:54:33.166Z,6.10
2023-03-06T15:57:01.005Z,4.43
2023-03-06T15:59:32.980Z,7.95
2023-03-06T16:02:02.053Z,7.43
2023-03-06T16:04:29.583Z,7.15
2023-03-06T16:06:58.414Z,7.10
2023-03-06T16:09:25.986Z,5.95
2023-03-06T16:11:53.463Z,4.50
2023-03-06T16:14:23.661Z,7.10
2023-03-06T16:16:51.816Z,7.13
2023-03-06T16:19:26.294Z,7.50
2023-03-06T16:21:54.917Z,7.28
2023-03-06T16:24:26.009Z,6.38
2023-03-06T16:26:54.905Z,8.52
2023-03-06T16:29:24.362Z,5.60
2023-03-06T16:31:52.334Z,6.15
2023-03-06T16:34:19.970Z,6.45
2023-03-06T16:36:48.848Z,5.78
2023-03-06T16:39:17.444Z,4.00
2023-03-06T16:41:47.137Z,7.35
2023-03-06T16:44:14.912Z,8.52
2023-03-06T16:46:45.628Z,8.52
2023-03-06T16:49:16.800Z,8.52
2023-03-06T16:51:44.354Z,7.35
2023-03-06T16:54:12.259Z,7.40
2023-03-06T16:56:39.733Z,5.30
2023-03-06T16:59:08.582Z,7.45
2023-03-06T17:01:36.192Z,4.75
2023-03-06T17:04:04.110Z,5.35
2023-03-06T17:06:31.658Z,4.10
2023-03-06T17:08:59.747Z,4.65
2023-03-06T17:11:27.411Z,4.22
2023-03-06T17:13:55.691Z,5.53
2023-03-06T17:16:24.490Z,4.45
2023-03-06T17:18:53.053Z,5.05
2023-03-06T17:21:20.619Z,4.82
2023-03-06T17:23:48.082Z,5.03
2023-03-06T17:26:18.132Z,5.40
2023-03-06T17:28:46.362Z,5.57
2023-03-06T17:31:15.102Z,5.30
2023-03-06T17:33:44.243Z,5.13
2023-03-06T17:36:11.931Z,4.50
2023-03-06T17:38:39.419Z,10.27
2023-03-06T17:41:07.969Z,21.85
2023-03-06T17:43:36.043Z,7.22
2023-03-06T17:46:04.329Z,5.70
2023-03-06T17:48:31.838Z,8.40
2023-03-06T17:51:01.117Z,15.13
2023-03-06T17:53:28.760Z,8.63
2023-03-06T17:55:57.934Z,9.60
2023-03-06T17:58:25.751Z,7.57
2023-03-06T18:00:53.384Z,8.32
2023-03-06T18:03:20.986Z,11.30
2023-03-06T18:05:48.466Z,10.88
2023-03-06T18:08:17.250Z,16.33
2023-03-06T18:10:44.842Z,14.57
2023-03-06T18:13:12.523Z,11.20
2023-03-06T18:15:40.425Z,17.70
2023-03-06T18:18:08.774Z,9.85
2023-03-06T18:20:41.395Z,7.18
2023-03-06T18:23:08.933Z,7.57
2023-03-06T18:25:37.711Z,7.30
2023-03-06T18:28:05.968Z,8.52
2023-03-06T18:30:35.702Z,9.98
2023-03-06T18:33:03.474Z,9.35
2023-03-06T18:35:32.640Z,10.90
2023-03-06T18:38:00.408Z,7.47
2023-03-06T18:40:27.972Z,7.93
2023-03-06T18:42:56.801Z,6.90
2023-03-06T18:45:24.351Z,6.60
2023-03-06T18:47:51.932Z,6.53
2023-03-06T18:50:19.678Z,8.02
2023-03-06T18:52:47.237Z,14.70
2023-03-06T18:55:14.777Z,8.52
2023-03-06T18:57:42.371Z,32.33
2023-03-06T19:00:12.580Z,22.55
2023-03-06T19:02:40.334Z,19.45
2023-03-06T19:05:08.504Z,14.98
2023-03-06T19:07:36.010Z,11.45
2023-03-06T19:10:03.944Z,10.02
2023-03-06T19:12:33.838Z,12.00
2023-03-06T19:15:03.275Z,13.25
2023-03-06T19:17:32.536Z,8.20
2023-03-06T19:20:00.161Z,9.93
2023-03-06T19:22:27.708Z,10.65
2023-03-06T19:24:55.492Z,10.82
2023-03-06T19:27:23.009Z,16.27
2023-03-06T19:29:50.579Z,21.08
2023-03-06T19:32:18.381Z,11.70
2023-03-06T19:34:49.950Z,10.13
2023-03-06T19:37:17.452Z,14.23
2023-03-06T19:39:45.100Z,14.20
2023-03-06T19:42:13.926Z,9.73
2023-03-06T19:44:41.638Z,14.98
2023-03-06T19:47:09.100Z,9.52
2023-03-06T19:49:38.083Z,11.15
2023-03-06T19:52:08.023Z,9.90
2023-03-06T19:54:35.792Z,12.68
2023-03-06T19:57:03.467Z,21.08
2023-03-06T19:59:31.177Z,19.65
2023-03-06T20:01:58.901Z,32.97
2023-03-06T20:04:26.555Z,38.88
2023-03-06T20:06:56.176Z,26.70
2023-03-06T20:09:25.296Z,21.27
2023-03-06T20:11:52.804Z,19.67
2023-03-06T20:14:20.302Z,26.42
2023-03-06T20:16:47.899Z,30.98
2023-03-06T20:19:15.518Z,28.38
2023-03-06T20:21:43.251Z,32.92
2023-03-06T20:24:16.648Z,33.25
2023-03-06T20:26:47.328Z,50.97
2023-03-06T20:29:14.844Z,31.00
2023-03-06T20:31:42.512Z,34.35
2023-03-06T20:34:11.702Z,55.65
2023-03-06T20:36:40.985Z,114.10
2023-03-06T20:39:10.215Z,87.88
2023-03-06T20:41:37.949Z,63.30
2023-03-06T20:44:09.008Z,110.07
2023-03-06T20:46:37.349Z,63.38
2023-03-06T20:49:05.626Z,45.92
2023-03-06T20:51:35.997Z,46.35
2023-03-06T20:54:04.073Z,29.70
2023-03-06T20:56:33.066Z,29.33
2023-03-06T20:59:01.039Z,24.17
2023-03-06T21:01:32.705Z,21.33
2023-03-06T21:04:01.186Z,19.55
2023-03-06T21:06:29.953Z,19.55
2023-03-06T21:08:57.917Z,19.17
2023-03-06T21:11:26.030Z,18.23
2023-03-06T21:13:53.980Z,16.50
2023-03-06T21:16:24.043Z,14.68
2023-03-06T21:18:55.157Z,15.70
2023-03-06T21:21:24.098Z,12.20
2023-03-06T21:23:52.119Z,13.57
2023-03-06T21:26:21.667Z,15.30
2023-03-06T21:28:49.287Z,14.68
2023-03-06T21:31:18.658Z,19.15
2023-03-06T21:33:47.155Z,19.13
2023-03-06T21:36:16.143Z,14.05
2023-03-06T21:38:43.757Z,14.85
2023-03-06T21:41:12.633Z,14.20
2023-03-06T21:43:40.356Z,13.90
2023-03-06T21:46:08.026Z,13.10
2023-03-06T21:48:35.736Z,12.57
2023-03-06T21:51:08.043Z,11.63
2023-03-06T21:53:37.156Z,12.63
2023-03-06T21:56:05.830Z,11.70
2023-03-06T21:58:33.994Z,14.00
2023-03-06T22:01:01.788Z,17.92
2023-03-06T22:03:30.190Z,19.33
2023-03-06T22:05:57.926Z,15.43
2023-03-06T22:08:25.470Z,14.55
2023-03-06T22:10:54.299Z,15.10
2023-03-06T22:13:22.865Z,20.38
2023-03-06T22:15:52.085Z,17.63
2023-03-06T22:18:19.759Z,27.20
2023-03-06T22:20:47.317Z,22.83
2023-03-06T22:23:15.201Z,20.15
2023-03-06T22:25:42.720Z,21.85
2023-03-06T22:28:13.025Z,20.83
2023-03-06T22:30:40.536Z,19.38
2023-03-06T22:33:08.216Z,20.88
2023-03-06T22:35:35.873Z,20.05
2023-03-06T22:38:04.590Z,26.77
2023-03-06T22:40:32.297Z,27.42
2023-03-06T22:42:59.808Z,27.92
2023-03-06T22:45:28.844Z,27.27
2023-03-06T22:48:05.612Z,25.45
2023-03-06T22:50:37.823Z,27.27
2023-03-06T22:53:05.320Z,31.25
2023-03-06T22:55:35.349Z,22.63
2023-03-06T22:58:02.821Z,25.65
2023-03-06T23:00:31.945Z,21.85
2023-03-06T23:02:59.476Z,26.05
2023-03-06T23:05:29.376Z,28.75
2023-03-06T23:07:57.023Z,22.42
2023-03-06T23:10:24.604Z,23.88
2023-03-06T23:12:52.150Z,29.42
2023-03-06T23:15:19.772Z,23.67
2023-03-06T23:17:48.602Z,29.77
2023-03-06T23:20:16.173Z,25.45
2023-03-06T23:22:44.254Z,25.77
2023-03-06T23:25:11.904Z,23.90
2023-03-06T23:27:40.391Z,26.27
2023-03-06T23:30:09.362Z,26.05
2023-03-06T23:32:37.111Z,28.92
2023-03-06T23:35:08.596Z,32.88
2023-03-06T23:37:36.310Z,23.90
2023-03-06T23:40:07.839Z,24.02
2023-03-06T23:42:35.340Z,32.20
2023-03-06T23:45:03.345Z,27.00
2023-03-06T23:47:32.632Z,21.58
2023-03-06T23:50:00.214Z,28.73
2023-03-06T23:52:29.025Z,23.50
2023-03-06T23:54:56.505Z,28.92
2023-03-06T23:57:23.961Z,20.90
2023-03-06T23:59:51.461Z,23.00
